Time;durP1;ratioP1;P1;durP2;ratioP2;P2;SDS_P1;SDS_P2;PMS_P1;PMS_P2;Temp;Humidity;BMP_temperature;BMP_pressure;BME280_temperature;BME280_humidity;BME280_pressure;Samples;Min_cycle;Max_cycle;Signal;HPM_P1;HPM_P2
2021/09/13 00:01:07;;;;;;;10.80;8.80;;;17.10;99.90;;;;;;5079157;28;20470;-59
2021/09/13 00:03:34;;;;;;;8.90;7.53;;;17.10;99.90;;;;;;5073535;28;20446;-59
2021/09/13 00:06:01;;;;;;;11.70;7.73;;;17.10;99.90;;;;;;5072217;28;20443;-60
2021/09/13 00:08:29;;;;;;;10.33;7.90;;;17.10;99.90;;;;;;5091927;28;20450;-59
2021/09/13 00:10:56;;;;;;;7.97;7.17;;;17.10;99.90;;;;;;5090927;28;20543;-60
2021/09/13 00:13:24;;;;;;;8.27;6.93;;;17.20;99.90;;;;;;5092345;28;20445;-60
2021/09/13 00:15:51;;;;;;;9.13;7.20;;;17.10;99.90;;;;;;5091732;28;20478;-60
2021/09/13 00:18:18;;;;;;;11.00;8.27;;;17.10;99.90;;;;;;5072191;28;20455;-60
2021/09/13 00:20:45;;;;;;;10.37;8.37;;;17.00;99.90;;;;;;5071663;28;20470;-60
2021/09/13 00:23:12;;;;;;;9.60;8.10;;;17.00;99.90;;;;;;5091954;28;20503;-60
2021/09/13 00:25:40;;;;;;;10.67;8.00;;;17.00;99.90;;;;;;5073841;28;20481;-60
2021/09/13 00:28:07;;;;;;;11.70;8.57;;;16.90;99.90;;;;;;5090522;28;20446;-60
2021/09/13 00:30:34;;;;;;;9.10;7.57;;;17.00;99.90;;;;;;5082929;28;20471;-60
2021/09/13 00:33:01;;;;;;;10.03;8.37;;;16.90;99.90;;;;;;5071472;28;20867;-60
2021/09/13 00:35:29;;;;;;;9.67;8.00;;;16.90;99.90;;;;;;5071706;28;21007;-60
2021/09/13 00:37:56;;;;;;;11.10;9.13;;;16.90;99.90;;;;;;5074680;28;20503;-60
2021/09/13 00:40:24;;;;;;;10.23;8.10;;;16.90;99.90;;;;;;5091543;28;20470;-60
2021/09/13 00:42:52;;;;;;;11.33;8.23;;;16.80;99.90;;;;;;5089297;28;21016;-60
2021/09/13 00:45:20;;;;;;;12.90;8.57;;;16.80;99.90;;;;;;5076254;28;20455;-60
2021/09/13 00:47:47;;;;;;;11.53;8.33;;;16.80;99.90;;;;;;5082288;28;20450;-60
2021/09/13 00:50:16;;;;;;;12.37;8.43;;;16.90;99.90;;;;;;5091733;28;20473;-60
2021/09/13 00:52:51;;;;;;;10.40;7.47;;;16.80;99.90;;;;;;5083151;28;20447;-60
2021/09/13 00:55:18;;;;;;;10.13;8.10;;;16.80;99.90;;;;;;5071789;28;20535;-60
2021/09/13 00:57:47;;;;;;;12.77;8.70;;;16.80;99.90;;;;;;5070846;28;20451;-60
2021/09/13 01:00:16;;;;;;;11.00;8.37;;;16.70;99.90;;;;;;5070874;28;20474;-60
2021/09/13 01:02:44;;;;;;;10.83;8.10;;;16.60;99.90;;;;;;5071164;28;20454;-60
2021/09/13 01:05:14;;;;;;;11.27;8.97;;;16.40;99.90;;;;;;5071549;28;20447;-60
2021/09/13 01:07:42;;;;;;;11.33;8.23;;;16.30;99.90;;;;;;5071539;28;20932;-60
2021/09/13 01:10:10;;;;;;;9.57;8.20;;;16.30;99.90;;;;;;5070732;28;20470;-60
2021/09/13 01:12:37;;;;;;;10.30;8.80;;;16.30;99.90;;;;;;5071391;28;20447;-60
2021/09/13 01:15:05;;;;;;;10.80;8.13;;;16.20;99.90;;;;;;5071221;28;20482;-60
2021/09/13 01:17:33;;;;;;;10.87;8.40;;;16.30;99.90;;;;;;5071082;28;20450;-60
2021/09/13 01:20:00;;;;;;;10.47;8.23;;;16.20;99.90;;;;;;5071305;28;20466;-60
2021/09/13 01:22:28;;;;;;;14.63;7.57;;;16.10;99.90;;;;;;5071872;28;20446;-60
2021/09/13 01:24:56;;;;;;;9.70;7.20;;;16.30;99.90;;;;;;5072485;28;20446;-60
2021/09/13 01:27:23;;;;;;;12.13;7.60;;;16.30;99.90;;;;;;5083362;28;20450;-60
2021/09/13 01:29:50;;;;;;;8.43;7.53;;;16.30;99.90;;;;;;5076087;28;20500;-60
2021/09/13 01:32:17;;;;;;;8.70;7.40;;;16.30;99.90;;;;;;5091466;28;20495;-60
2021/09/13 01:34:45;;;;;;;9.50;7.90;;;16.50;99.90;;;;;;5090519;28;20457;-60
2021/09/13 01:37:12;;;;;;;10.90;8.57;;;16.40;99.90;;;;;;5090800;28;21012;-60
2021/09/13 01:39:39;;;;;;;8.87;7.63;;;16.30;99.90;;;;;;5091412;28;20988;-60
2021/09/13 01:42:07;;;;;;;10.10;8.20;;;16.30;99.90;;;;;;5089693;28;20450;-60
2021/09/13 01:44:34;;;;;;;11.13;8.73;;;16.20;99.90;;;;;;5093190;28;20522;-60
2021/09/13 01:47:01;;;;;;;9.57;8.30;;;16.20;99.90;;;;;;5080179;28;20500;-60
2021/09/13 01:49:28;;;;;;;11.07;8.90;;;16.10;99.90;;;;;;5085515;28;20522;-60
2021/09/13 01:51:55;;;;;;;10.73;7.70;;;16.20;99.90;;;;;;5076180;28;20470;-60
2021/09/13 01:54:22;;;;;;;13.10;8.40;;;16.20;99.90;;;;;;5075039;28;20443;-60
2021/09/13 01:56:49;;;;;;;9.83;8.27;;;16.20;99.90;;;;;;5086702;28;20477;-60
2021/09/13 01:59:18;;;;;;;12.17;8.77;;;16.10;99.90;;;;;;5095150;28;20502;-60
2021/09/13 02:01:44;;;;;;;11.20;8.70;;;16.10;99.90;;;;;;5090887;28;20467;-60
2021/09/13 02:04:11;;;;;;;11.00;8.07;;;16.20;99.90;;;;;;5074945;28;20450;-60
2021/09/13 02:06:38;;;;;;;12.03;8.17;;;16.10;99.90;;;;;;5086496;28;20524;-60
2021/09/13 02:09:05;;;;;;;9.90;7.90;;;16.20;99.90;;;;;;5094876;28;20450;-60
2021/09/13 02:11:32;;;;;;;9.70;8.20;;;16.20;99.90;;;;;;5092670;28;20535;-60
2021/09/13 02:13:59;;;;;;;9.03;7.33;;;16.30;99.90;;;;;;5093890;28;20446;-60
2021/09/13 02:16:27;;;;;;;9.43;8.00;;;16.20;99.90;;;;;;5085020;28;20478;-60
2021/09/13 02:18:54;;;;;;;10.30;7.10;;;16.30;99.90;;;;;;5074649;28;21019;-60
2021/09/13 02:21:40;;;;;;;10.47;8.30;;;16.40;99.90;;;;;;5074010;28;20479;-60
2021/09/13 02:24:07;;;;;;;11.00;7.63;;;16.30;99.90;;;;;;5074547;28;20874;-60
2021/09/13 02:26:34;;;;;;;10.43;7.70;;;16.20;99.90;;;;;;5074165;28;20450;-60
2021/09/13 02:29:01;;;;;;;11.10;8.37;;;16.20;99.90;;;;;;5075497;28;20454;-60
2021/09/13 02:31:29;;;;;;;8.87;7.97;;;16.20;99.90;;;;;;5088658;28;21066;-60
2021/09/13 02:33:56;;;;;;;9.13;7.23;;;16.10;99.90;;;;;;5094519;28;20523;-60
2021/09/13 02:36:23;;;;;;;10.83;7.40;;;16.10;99.90;;;;;;5094330;28;20481;-60
2021/09/13 02:38:50;;;;;;;13.37;7.50;;;16.10;99.90;;;;;;5094542;28;20446;-60
2021/09/13 02:41:17;;;;;;;10.07;6.70;;;16.20;99.90;;;;;;5093871;28;20522;-60
2021/09/13 02:43:44;;;;;;;10.97;8.43;;;16.20;99.90;;;;;;5094275;28;20503;-60
2021/09/13 02:46:12;;;;;;;12.43;7.80;;;16.30;99.90;;;;;;5077670;28;20864;-60
2021/09/13 02:48:41;;;;;;;10.17;8.10;;;16.10;99.90;;;;;;5073508;28;20446;-60
2021/09/13 02:51:08;;;;;;;9.93;7.77;;;16.10;99.90;;;;;;5074061;28;20995;-60
2021/09/13 02:53:35;;;;;;;10.10;8.63;;;16.20;99.90;;;;;;5099238;28;20879;-60
2021/09/13 02:56:02;;;;;;;10.53;8.00;;;16.10;99.90;;;;;;5112276;28;20476;-60
2021/09/13 02:58:29;;;;;;;8.43;6.83;;;16.10;99.90;;;;;;5101032;28;20502;-60
2021/09/13 03:00:56;;;;;;;11.13;8.20;;;16.00;99.90;;;;;;5106126;28;20509;-59
2021/09/13 03:03:23;;;;;;;8.57;7.10;;;16.10;99.90;;;;;;5088864;28;20446;-60
2021/09/13 03:05:52;;;;;;;8.30;7.23;;;16.10;99.90;;;;;;5089735;28;20442;-60
2021/09/13 03:08:20;;;;;;;10.40;8.00;;;16.10;99.90;;;;;;5100075;28;20442;-60
2021/09/13 03:10:47;;;;;;;9.03;7.60;;;16.10;99.90;;;;;;5093846;28;20462;-60
2021/09/13 03:13:14;;;;;;;11.50;8.47;;;16.00;99.90;;;;;;5094019;28;20446;-60
2021/09/13 03:15:41;;;;;;;9.33;7.60;;;16.10;99.90;;;;;;5093800;28;20481;-60
2021/09/13 03:18:09;;;;;;;9.73;7.60;;;16.10;99.90;;;;;;5093901;28;20438;-60
2021/09/13 03:20:36;;;;;;;11.43;8.00;;;15.90;99.90;;;;;;5092680;28;20470;-60
2021/09/13 03:23:04;;;;;;;10.37;7.80;;;15.80;99.90;;;;;;5088320;28;20446;-60
2021/09/13 03:25:31;;;;;;;11.50;7.70;;;15.80;99.90;;;;;;5101561;28;20490;-60
2021/09/13 03:27:58;;;;;;;11.73;7.37;;;15.80;99.90;;;;;;5112754;28;20433;-60
2021/09/13 03:30:26;;;;;;;9.40;7.17;;;15.90;99.90;;;;;;5112238;28;20465;-60
2021/09/13 03:32:53;;;;;;;10.63;8.47;;;15.90;99.90;;;;;;5112377;28;20441;-60
2021/09/13 03:35:20;;;;;;;13.70;7.70;;;15.80;99.90;;;;;;5108328;28;20449;-60
2021/09/13 03:37:47;;;;;;;9.50;7.57;;;15.80;99.90;;;;;;5103468;28;20491;-60
2021/09/13 03:40:19;;;;;;;8.13;6.97;;;15.90;99.90;;;;;;5092924;28;20918;-60
2021/09/13 03:42:46;;;;;;;10.30;8.03;;;15.90;99.90;;;;;;5093280;28;21008;-60
2021/09/13 03:45:13;;;;;;;10.17;7.73;;;15.90;99.90;;;;;;5093153;28;20461;-60
2021/09/13 03:47:40;;;;;;;12.67;8.43;;;15.90;99.90;;;;;;5093276;28;20793;-60
2021/09/13 03:50:07;;;;;;;9.20;7.77;;;15.90;99.90;;;;;;5105898;28;20465;-60
2021/09/13 03:52:34;;;;;;;11.00;7.80;;;15.90;99.90;;;;;;5112430;28;20503;-60
2021/09/13 03:55:01;;;;;;;10.97;7.17;;;15.90;99.90;;;;;;5093029;28;20508;-60
2021/09/13 03:57:30;;;;;;;7.97;7.03;;;15.90;99.90;;;;;;5098852;28;21029;-60
2021/09/13 03:59:57;;;;;;;9.37;7.30;;;15.80;99.90;;;;;;5111931;28;20461;-60
2021/09/13 04:02:24;;;;;;;8.77;7.40;;;15.80;99.90;;;;;;5111878;28;20441;-60
2021/09/13 04:04:51;;;;;;;8.87;7.23;;;15.80;99.90;;;;;;5105417;28;20472;-60
2021/09/13 04:07:22;;;;;;;9.73;8.20;;;15.70;99.90;;;;;;5092394;28;20520;-60
2021/09/13 04:09:56;;;;;;;10.60;8.47;;;15.80;99.90;;;;;;5092876;28;20446;-60
2021/09/13 04:12:23;;;;;;;8.73;7.30;;;15.80;99.90;;;;;;5094577;28;20494;-60
2021/09/13 04:14:51;;;;;;;12.70;7.80;;;15.80;99.90;;;;;;5105783;28;20437;-60
2021/09/13 04:17:19;;;;;;;9.67;8.03;;;15.70;99.90;;;;;;5088917;28;20477;-60
2021/09/13 04:19:45;;;;;;;8.37;7.07;;;15.80;99.90;;;;;;5092890;28;20521;-60
2021/09/13 04:22:12;;;;;;;12.20;8.60;;;15.70;99.90;;;;;;5097348;28;20875;-60
2021/09/13 04:24:39;;;;;;;9.67;7.93;;;15.70;99.90;;;;;;5097167;28;20501;-60
2021/09/13 04:27:06;;;;;;;11.40;8.17;;;15.70;99.90;;;;;;5096728;28;20499;-60
2021/09/13 04:29:33;;;;;;;9.57;7.90;;;15.60;99.90;;;;;;5101390;28;20473;-60
2021/09/13 04:32:02;;;;;;;10.73;8.03;;;15.60;99.90;;;;;;5099096;28;20471;-60
2021/09/13 04:34:29;;;;;;;9.83;8.00;;;15.50;99.90;;;;;;5104053;28;20434;-60
2021/09/13 04:36:56;;;;;;;8.20;6.90;;;15.50;99.90;;;;;;5098873;28;20630;-60
2021/09/13 04:39:23;;;;;;;9.97;6.77;;;15.50;99.90;;;;;;5092299;28;20519;-60
2021/09/13 04:41:50;;;;;;;10.73;8.30;;;15.50;99.90;;;;;;5092052;28;20457;-60
2021/09/13 04:44:17;;;;;;;9.70;7.80;;;15.50;99.90;;;;;;5095926;28;20452;-60
2021/09/13 04:46:44;;;;;;;8.60;7.70;;;15.50;99.90;;;;;;5099783;28;20449;-60
2021/09/13 04:49:12;;;;;;;9.17;6.57;;;15.50;99.90;;;;;;5092335;28;20445;-60
2021/09/13 04:51:39;;;;;;;9.67;6.87;;;15.50;99.90;;;;;;5087599;28;20992;-60
2021/09/13 04:54:06;;;;;;;9.47;6.97;;;15.50;99.90;;;;;;5103630;28;20450;-60
2021/09/13 04:56:33;;;;;;;9.13;7.30;;;15.50;99.90;;;;;;5089521;28;20488;-60
2021/09/13 04:59:00;;;;;;;8.23;7.03;;;15.50;99.90;;;;;;5087373;28;20828;-60
2021/09/13 05:01:27;;;;;;;8.33;7.10;;;15.50;99.90;;;;;;5106299;28;20496;-60
2021/09/13 05:03:54;;;;;;;8.60;6.50;;;15.50;99.90;;;;;;5103806;28;21021;-60
2021/09/13 05:06:22;;;;;;;8.13;6.80;;;15.50;99.90;;;;;;5098261;28;20510;-60
2021/09/13 05:08:49;;;;;;;10.00;6.97;;;15.50;99.90;;;;;;5091969;28;20442;-60
2021/09/13 05:11:16;;;;;;;9.57;7.40;;;15.50;99.90;;;;;;5086229;28;20547;-60
2021/09/13 05:13:43;;;;;;;9.02;7.70;;;15.40;99.90;;;;;;5077889;28;20933;-59
2021/09/13 05:16:11;;;;;;;10.52;8.48;;;15.60;99.90;;;;;;5089873;28;20996;-59
2021/09/13 05:18:39;;;;;;;10.10;8.50;;;15.40;99.90;;;;;;5095123;28;20951;-59
2021/09/13 05:21:06;;;;;;;14.30;8.40;;;15.20;99.90;;;;;;5091836;28;20519;-58
2021/09/13 05:23:35;;;;;;;10.53;8.37;;;15.10;99.90;;;;;;5095486;28;20477;-59
2021/09/13 05:26:02;;;;;;;12.80;8.17;;;15.30;99.90;;;;;;5115082;28;20472;-59
2021/09/13 05:28:29;;;;;;;9.70;7.80;;;15.30;99.90;;;;;;5107643;27;20450;-58
2021/09/13 05:30:56;;;;;;;12.30;7.53;;;15.40;99.90;;;;;;5094592;28;20465;-59
2021/09/13 05:33:23;;;;;;;10.47;7.60;;;15.60;99.90;;;;;;5095515;28;20442;-59
2021/09/13 05:35:50;;;;;;;10.60;8.20;;;15.50;99.90;;;;;;5090691;28;21260;-59
2021/09/13 05:38:18;;;;;;;10.53;7.30;;;15.60;99.90;;;;;;5093175;28;20445;-59
2021/09/13 05:40:46;;;;;;;10.23;7.83;;;15.60;99.90;;;;;;5100399;28;20545;-61
2021/09/13 05:43:13;;;;;;;8.20;7.27;;;15.70;99.90;;;;;;5087615;28;20443;-59
2021/09/13 05:45:41;;;;;;;11.33;8.03;;;15.80;99.90;;;;;;5085852;28;21039;-58
2021/09/13 05:48:08;;;;;;;9.33;7.23;;;15.70;99.90;;;;;;5090432;28;20438;-58
2021/09/13 05:50:35;;;;;;;11.40;7.57;;;15.80;99.90;;;;;;5090512;28;20522;-59
2021/09/13 05:53:02;;;;;;;8.70;7.47;;;15.80;99.90;;;;;;5094371;28;20446;-59
2021/09/13 05:55:29;;;;;;;8.23;6.77;;;16.00;99.90;;;;;;5100984;28;20510;-59
2021/09/13 05:57:58;;;;;;;8.77;7.10;;;16.50;99.90;;;;;;5092169;28;20569;-58
2021/09/13 06:00:25;;;;;;;7.40;6.10;;;17.30;99.90;;;;;;5088700;28;20478;-59
2021/09/13 06:02:52;;;;;;;8.53;7.00;;;18.30;99.90;;;;;;5093334;28;20465;-60
2021/09/13 06:05:19;;;;;;;7.53;6.23;;;19.10;99.90;;;;;;5113898;28;20445;-59
2021/09/13 06:07:46;;;;;;;10.87;6.87;;;19.70;99.90;;;;;;5113741;28;20954;-60
2021/09/13 06:10:13;;;;;;;8.50;6.50;;;20.30;99.90;;;;;;5106496;27;20900;-61
2021/09/13 06:12:40;;;;;;;7.37;6.67;;;20.90;99.90;;;;;;5094881;28;20446;-60
2021/09/13 06:15:12;;;;;;;7.87;6.00;;;21.60;99.90;;;;;;5113731;28;20498;-61
2021/09/13 06:17:39;;;;;;;8.40;6.03;;;22.00;99.90;;;;;;5113558;28;21007;-62
2021/09/13 06:20:07;;;;;;;9.40;7.07;;;22.50;99.90;;;;;;5107874;28;20492;-62
2021/09/13 06:22:34;;;;;;;7.10;5.70;;;22.70;99.90;;;;;;5094475;28;20473;-61
2021/09/13 06:25:02;;;;;;;9.23;6.70;;;23.20;99.90;;;;;;5094320;28;20461;-61
2021/09/13 06:27:29;;;;;;;8.07;6.20;;;23.70;99.90;;;;;;5094334;28;20445;-61
2021/09/13 06:29:56;;;;;;;7.83;6.57;;;24.00;99.90;;;;;;5093230;28;20447;-61
2021/09/13 06:32:24;;;;;;;7.50;6.70;;;24.30;99.90;;;;;;5096749;28;20449;-60
2021/09/13 06:34:51;;;;;;;6.83;6.20;;;24.40;99.90;;;;;;5094023;28;21135;-61
2021/09/13 06:37:20;;;;;;;6.90;5.63;;;24.80;99.90;;;;;;5099017;28;20473;-61
2021/09/13 06:39:47;;;;;;;8.30;6.40;;;25.10;99.90;;;;;;5110804;28;20449;-61
2021/09/13 06:42:14;;;;;;;8.67;6.80;;;25.30;99.90;;;;;;5093834;28;20529;-61
2021/09/13 06:44:45;;;;;;;8.10;6.10;;;25.20;99.90;;;;;;5090297;28;20469;-60
2021/09/13 06:47:22;;;;;;;6.80;6.07;;;25.00;99.90;;;;;;5094074;28;20886;-60
2021/09/13 06:49:50;;;;;;;5.67;5.17;;;25.40;99.90;;;;;;5094706;28;20445;-60
2021/09/13 06:52:17;;;;;;;6.03;5.53;;;25.60;99.90;;;;;;5092889;28;20442;-61
2021/09/13 06:54:44;;;;;;;6.80;6.10;;;25.90;99.90;;;;;;5096640;28;20437;-60
2021/09/13 06:57:11;;;;;;;8.10;7.13;;;25.70;99.90;;;;;;5112887;27;20511;-60
2021/09/13 06:59:38;;;;;;;7.27;6.20;;;25.50;99.90;;;;;;5111810;28;20448;-61
2021/09/13 07:02:08;;;;;;;10.27;6.70;;;25.40;99.90;;;;;;5092129;28;20932;-61
2021/09/13 07:04:35;;;;;;;8.43;6.23;;;25.20;99.90;;;;;;5093668;28;20445;-61
2021/09/13 07:07:04;;;;;;;6.70;6.00;;;25.00;99.90;;;;;;5093963;28;20449;-60
2021/09/13 07:09:31;;;;;;;6.53;5.93;;;24.90;99.90;;;;;;5100526;27;20455;-61
2021/09/13 07:11:58;;;;;;;6.40;5.80;;;25.00;99.90;;;;;;5090628;28;20474;-61
2021/09/13 07:14:25;;;;;;;6.10;5.50;;;25.30;99.90;;;;;;5085887;28;20459;-61
2021/09/13 07:16:52;;;;;;;7.87;5.57;;;25.70;99.90;;;;;;5086342;28;20477;-61
2021/09/13 07:19:19;;;;;;;6.90;5.67;;;26.10;99.90;;;;;;5091533;28;20896;-60
2021/09/13 07:21:47;;;;;;;6.47;5.87;;;26.20;99.90;;;;;;5090600;28;20465;-62
2021/09/13 07:24:20;;;;;;;7.03;5.90;;;26.40;99.90;;;;;;5075178;28;20451;-61
2021/09/13 07:26:47;;;;;;;9.33;6.33;;;26.60;99.90;;;;;;5072707;28;20473;-61
2021/09/13 07:29:14;;;;;;;7.20;6.47;;;26.90;99.90;;;;;;5072951;28;20447;-61
2021/09/13 07:31:41;;;;;;;5.60;5.10;;;27.30;99.90;;;;;;5089073;28;20466;-61
2021/09/13 07:34:08;;;;;;;6.47;5.83;;;27.70;99.90;;;;;;5093189;28;20478;-61
2021/09/13 07:36:35;;;;;;;6.93;6.20;;;27.30;99.90;;;;;;5092871;28;20473;-61
2021/09/13 07:39:02;;;;;;;7.27;6.67;;;27.40;99.90;;;;;;5076083;28;20913;-61
2021/09/13 07:41:31;;;;;;;7.20;6.47;;;27.50;99.90;;;;;;5073667;28;20466;-61
2021/09/13 07:43:58;;;;;;;10.90;6.30;;;27.50;99.90;;;;;;5072480;28;20541;-61
2021/09/13 07:46:25;;;;;;;5.63;5.13;;;27.50;99.90;;;;;;5072619;28;20526;-62
2021/09/13 07:48:52;;;;;;;6.63;6.03;;;26.40;99.90;;;;;;5072665;28;20860;-61
2021/09/13 07:51:19;;;;;;;7.40;6.70;;;27.00;99.90;;;;;;5084213;28;20539;-61
2021/09/13 07:53:46;;;;;;;5.90;5.40;;;27.40;99.90;;;;;;5072334;28;20454;-61
2021/09/13 07:56:13;;;;;;;7.20;6.50;;;28.00;99.90;;;;;;5072678;28;20890;-61
2021/09/13 07:58:42;;;;;;;6.80;6.10;;;27.80;99.90;;;;;;5072375;28;20482;-60
2021/09/13 08:01:09;;;;;;;6.50;5.97;;;27.30;99.90;;;;;;5083491;28;20466;-61
2021/09/13 08:03:36;;;;;;;7.00;5.80;;;27.80;99.90;;;;;;5092632;28;20505;-60
2021/09/13 08:06:03;;;;;;;6.07;5.47;;;28.20;99.90;;;;;;5073703;28;20446;-60
2021/09/13 08:08:30;;;;;;;9.23;6.37;;;27.80;99.90;;;;;;5073393;28;20534;-60
2021/09/13 08:10:57;;;;;;;6.50;5.90;;;27.50;99.90;;;;;;5081175;28;20470;-61
2021/09/13 08:13:24;;;;;;;6.90;6.20;;;27.30;99.90;;;;;;5091449;28;20458;-61
2021/09/13 08:15:53;;;;;;;6.27;5.77;;;26.50;99.90;;;;;;5089014;28;20449;-61
2021/09/13 08:18:20;;;;;;;6.53;5.93;;;27.20;99.90;;;;;;5090591;28;20542;-61
2021/09/13 08:20:47;;;;;;;7.03;6.33;;;27.10;99.90;;;;;;5084224;28;20987;-61
2021/09/13 08:23:14;;;;;;;6.47;5.70;;;27.50;99.90;;;;;;5081087;28;20963;-61
2021/09/13 08:25:41;;;;;;;6.50;5.90;;;27.80;99.90;;;;;;5078273;28;20504;-59
2021/09/13 08:28:12;;;;;;;7.07;6.37;;;27.70;99.90;;;;;;5091532;28;20438;-60
2021/09/13 08:30:41;;;;;;;6.30;5.70;;;28.00;99.90;;;;;;5085161;28;20470;-61
2021/09/13 08:33:10;;;;;;;7.80;5.53;;;28.50;99.90;;;;;;5071712;28;20447;-60
2021/09/13 08:35:37;;;;;;;13.67;6.73;;;28.40;99.90;;;;;;5072010;28;20508;-61
2021/09/13 08:38:04;;;;;;;7.97;5.70;;;28.60;99.90;;;;;;5071897;28;20482;-60
2021/09/13 08:40:31;;;;;;;6.53;5.97;;;29.10;99.90;;;;;;5074997;28;20470;-60
2021/09/13 08:42:59;;;;;;;6.30;5.70;;;28.40;99.90;;;;;;5091724;28;20935;-60
2021/09/13 08:45:31;;;;;;;7.70;6.50;;;28.30;99.90;;;;;;5091004;28;20536;-61
2021/09/13 08:48:06;;;;;;;7.20;6.53;;;28.80;99.90;;;;;;5091936;28;20474;-60
2021/09/13 08:50:41;;;;;;;6.60;6.00;;;28.30;99.90;;;;;;5087984;28;20545;-60
2021/09/13 08:53:10;;;;;;;9.40;8.50;;;28.40;99.90;;;;;;5071259;28;20967;-60
2021/09/13 08:55:37;;;;;;;12.80;8.87;;;27.40;99.90;;;;;;5071641;28;20550;-60
2021/09/13 08:58:04;;;;;;;9.03;8.10;;;26.40;99.90;;;;;;5071579;28;20483;-60
2021/09/13 09:00:34;;;;;;;10.00;9.00;;;25.10;99.90;;;;;;5074160;28;20979;-59
2021/09/13 09:03:04;;;;;;;9.50;7.80;;;26.00;99.90;;;;;;5091904;28;20437;-59
2021/09/13 09:05:39;;;;;;;10.73;8.93;;;26.40;99.90;;;;;;5091642;28;20939;-59
2021/09/13 09:08:06;;;;;;;8.57;7.70;;;26.60;99.90;;;;;;5091508;28;20498;-60
2021/09/13 09:10:33;;;;;;;9.73;8.60;;;26.80;99.90;;;;;;5090473;28;20465;-60
2021/09/13 09:13:03;;;;;;;10.20;8.53;;;25.10;99.90;;;;;;5091475;28;20864;-60
2021/09/13 09:15:31;;;;;;;10.37;9.07;;;25.30;99.90;;;;;;5092024;28;20448;-60
2021/09/13 09:18:00;;;;;;;9.10;8.20;;;25.20;99.90;;;;;;5091579;28;20474;-60
2021/09/13 09:20:28;;;;;;;9.50;8.50;;;25.80;99.90;;;;;;5090425;28;20466;-60
2021/09/13 09:23:04;;;;;;;12.27;8.77;;;26.40;99.90;;;;;;5091636;28;20442;-59
2021/09/13 09:25:36;;;;;;;8.27;7.47;;;25.90;99.90;;;;;;5087041;28;20875;-60
2021/09/13 09:28:05;;;;;;;9.97;8.30;;;26.00;99.90;;;;;;5073530;28;20451;-60
2021/09/13 09:30:38;;;;;;;9.20;8.30;;;26.30;99.90;;;;;;5073769;28;20518;-61
2021/09/13 09:33:09;;;;;;;16.47;10.80;;;26.50;99.90;;;;;;5071158;28;20999;-62
2021/09/13 09:35:44;;;;;;;8.67;7.87;;;26.70;99.90;;;;;;5071139;28;20486;-61
2021/09/13 09:38:28;;;;;;;11.17;8.40;;;26.70;99.90;;;;;;5071056;28;20535;-61
2021/09/13 09:41:03;;;;;;;9.90;8.10;;;26.00;99.90;;;;;;5075328;28;20469;-62
2021/09/13 09:43:31;;;;;;;10.30;8.40;;;26.40;99.90;;;;;;5079781;28;20459;-62
2021/09/13 09:45:59;;;;;;;11.97;8.10;;;27.00;99.90;;;;;;5073613;28;20529;-61
2021/09/13 09:48:31;;;;;;;10.40;8.63;;;27.20;99.90;;;;;;5080115;28;20450;-60
2021/09/13 09:50:58;;;;;;;9.13;8.00;;;27.10;99.90;;;;;;5086018;28;20549;-60
2021/09/13 09:53:29;;;;;;;9.60;8.70;;;26.60;99.90;;;;;;5085953;28;20518;-61
2021/09/13 09:56:12;;;;;;;10.63;9.03;;;26.80;99.90;;;;;;5091249;28;20446;-60
2021/09/13 09:59:00;;;;;;;10.90;8.67;;;26.40;99.90;;;;;;5091078;28;20513;-60
2021/09/13 10:01:32;;;;;;;11.33;9.07;;;26.60;99.90;;;;;;5082002;28;20992;-61
2021/09/13 10:04:16;;;;;;;10.10;9.00;;;26.60;99.90;;;;;;5074424;28;20441;-61
2021/09/13 10:06:45;;;;;;;10.03;9.03;;;25.90;99.90;;;;;;5074415;28;20450;-60
2021/09/13 10:09:14;;;;;;;10.70;9.20;;;25.20;99.90;;;;;;5082391;28;20443;-61
2021/09/13 10:11:42;;;;;;;9.80;8.80;;;25.30;99.90;;;;;;5085616;28;20552;-60
2021/09/13 10:14:11;;;;;;;8.73;7.83;;;25.50;99.90;;;;;;5076939;28;21208;-62
2021/09/13 10:16:40;;;;;;;9.43;8.43;;;25.50;99.90;;;;;;5091510;28;21012;-61
2021/09/13 10:19:08;;;;;;;8.87;7.97;;;26.20;99.90;;;;;;5079326;28;20474;-62
2021/09/13 10:21:36;;;;;;;9.30;8.40;;;25.90;99.90;;;;;;5093444;28;20465;-61
2021/09/13 10:24:06;;;;;;;10.90;9.80;;;26.00;99.90;;;;;;5094541;28;20450;-62
2021/09/13 10:26:35;;;;;;;9.53;8.60;;;26.20;99.90;;;;;;5094517;28;20906;-62
2021/09/13 10:29:25;;;;;;;8.47;7.60;;;26.30;99.90;;;;;;5081331;28;20488;-61
2021/09/13 10:32:05;;;;;;;14.60;9.57;;;26.50;99.90;;;;;;5092812;28;20470;-62
2021/09/13 10:34:34;;;;;;;10.40;9.23;;;26.90;99.90;;;;;;5091265;28;20445;-61
2021/09/13 10:37:11;;;;;;;11.53;10.33;;;26.70;99.90;;;;;;5093733;28;20449;-61
2021/09/13 10:39:51;;;;;;;11.17;10.00;;;25.90;99.90;;;;;;5091431;28;21140;-61
2021/09/13 10:42:38;;;;;;;12.73;10.37;;;25.40;99.90;;;;;;5107427;28;20449;-61
2021/09/13 10:45:25;;;;;;;13.27;11.27;;;24.70;99.90;;;;;;5093361;28;20509;-61
2021/09/13 10:48:07;;;;;;;12.20;10.90;;;24.40;99.90;;;;;;5088668;28;20200;-60
2021/09/13 10:50:39;;;;;;;12.80;11.50;;;24.30;99.90;;;;;;5083382;28;20520;-60
2021/09/13 10:53:31;;;;;;;12.30;11.00;;;24.20;99.90;;;;;;5088551;28;20454;-61
2021/09/13 10:56:01;;;;;;;11.63;10.13;;;23.70;99.90;;;;;;5111990;28;20433;-62
2021/09/13 10:58:43;;;;;;;13.73;11.70;;;23.90;99.90;;;;;;5095546;28;21053;-60
2021/09/13 11:01:20;;;;;;;11.70;10.30;;;24.30;99.90;;;;;;5093788;28;20529;-60
2021/09/13 11:03:52;;;;;;;10.33;9.20;;;24.30;99.90;;;;;;5103200;28;20449;-61
2021/09/13 11:06:43;;;;;;;14.03;11.30;;;24.80;99.90;;;;;;5111742;28;20510;-61
2021/09/13 11:09:20;;;;;;;11.10;9.67;;;24.70;99.90;;;;;;5092389;28;20439;-60
2021/09/13 11:11:54;;;;;;;10.63;9.50;;;24.70;99.90;;;;;;5111318;28;21232;-60
2021/09/13 11:14:24;;;;;;;12.90;10.57;;;25.00;99.90;;;;;;5111923;27;20448;-62
2021/09/13 11:16:53;;;;;;;14.50;10.53;;;24.90;99.90;;;;;;5111560;28;20433;-61
2021/09/13 11:19:22;;;;;;;13.53;10.33;;;24.40;99.90;;;;;;5104849;28;20565;-61
2021/09/13 11:21:50;;;;;;;10.53;9.30;;;24.60;99.90;;;;;;5092246;28;20466;-60
2021/09/13 11:24:18;;;;;;;11.40;10.07;;;24.60;99.90;;;;;;5092539;28;20450;-60
2021/09/13 11:26:48;;;;;;;11.87;9.80;;;24.90;99.90;;;;;;5092602;28;20449;-61
2021/09/13 11:29:16;;;;;;;11.03;9.83;;;24.50;99.90;;;;;;5091235;28;20537;-60
2021/09/13 11:31:47;;;;;;;14.70;10.13;;;24.10;99.90;;;;;;5092106;28;20515;-61
2021/09/13 11:34:23;;;;;;;12.03;10.73;;;24.10;99.90;;;;;;5092209;28;20503;-61
2021/09/13 11:36:56;;;;;;;12.27;10.60;;;23.50;99.90;;;;;;5092271;28;20507;-60
2021/09/13 11:39:24;;;;;;;13.73;11.40;;;23.40;99.90;;;;;;5088676;28;20479;-60
2021/09/13 11:42:04;;;;;;;13.70;11.30;;;23.50;99.90;;;;;;5111186;28;20484;-61
2021/09/13 11:44:36;;;;;;;14.87;11.13;;;23.60;99.90;;;;;;5111179;28;20476;-61
2021/09/13 11:47:06;;;;;;;13.53;10.80;;;23.70;99.90;;;;;;5096457;28;20449;-60
2021/09/13 11:49:34;;;;;;;15.33;9.77;;;23.60;99.90;;;;;;5095021;28;20954;-60
2021/09/13 11:52:12;;;;;;;13.87;11.23;;;23.90;99.90;;;;;;5104447;28;20988;-61
2021/09/13 11:54:47;;;;;;;12.37;9.90;;;23.80;99.90;;;;;;5100605;28;20507;-60
2021/09/13 11:57:32;;;;;;;16.20;11.33;;;23.70;99.90;;;;;;5091843;28;20446;-61
2021/09/13 12:00:00;;;;;;;10.80;9.27;;;23.80;99.90;;;;;;5093782;28;20478;-60
2021/09/13 12:02:30;;;;;;;10.60;8.67;;;23.90;99.90;;;;;;5087637;28;20523;-60
2021/09/13 12:04:59;;;;;;;12.47;9.60;;;23.90;99.90;;;;;;5091818;28;20499;-61
2021/09/13 12:07:27;;;;;;;10.70;9.27;;;24.10;99.90;;;;;;5088413;28;20453;-60
2021/09/13 12:09:55;;;;;;;11.03;9.67;;;24.30;99.90;;;;;;5098562;28;20947;-60
2021/09/13 12:12:24;;;;;;;11.90;9.17;;;23.80;99.90;;;;;;5095699;28;20520;-61
2021/09/13 12:14:54;;;;;;;8.23;7.43;;;23.60;99.90;;;;;;5094834;28;21007;-60
2021/09/13 12:17:22;;;;;;;7.70;6.90;;;23.90;99.90;;;;;;5110542;28;20451;-60
2021/09/13 12:20:10;;;;;;;8.90;7.77;;;23.90;99.90;;;;;;5100723;28;20529;-60
2021/09/13 12:22:37;;;;;;;8.63;7.73;;;23.90;99.90;;;;;;5091098;28;21020;-60
2021/09/13 12:25:11;;;;;;;11.97;7.80;;;23.90;99.90;;;;;;5091286;28;20911;-60
2021/09/13 12:27:41;;;;;;;7.70;6.90;;;24.00;99.90;;;;;;5089792;28;20484;-60
2021/09/13 12:30:15;;;;;;;8.50;7.70;;;23.90;99.90;;;;;;5091567;28;20469;-62
2021/09/13 12:32:50;;;;;;;6.90;6.30;;;24.30;99.90;;;;;;5075186;28;20451;-62
2021/09/13 12:35:18;;;;;;;8.37;7.23;;;24.60;99.90;;;;;;5080002;28;20529;-61
2021/09/13 12:37:53;;;;;;;7.57;6.80;;;24.80;99.90;;;;;;5073680;28;20523;-61
2021/09/13 12:40:20;;;;;;;9.20;7.23;;;24.80;99.90;;;;;;5080603;28;20911;-60
2021/09/13 12:42:56;;;;;;;7.30;6.30;;;24.80;99.90;;;;;;5073937;28;20455;-61
2021/09/13 12:45:24;;;;;;;6.33;5.73;;;24.70;99.90;;;;;;5071623;28;20442;-62
2021/09/13 12:47:55;;;;;;;8.57;6.67;;;24.80;99.90;;;;;;5082030;28;20446;-61
2021/09/13 12:50:29;;;;;;;7.53;6.83;;;24.90;99.90;;;;;;5091062;28;20998;-61